sensor_id;sensor_type;location;lat;lon;timestamp;P1;durP1;ratioP1;P2;durP2;ratioP2
81273;SDS011;70753;47.908;11.274;2023-08-12T00:00:11;5.15;;;2.65;;
81273;SDS011;70753;47.908;11.274;2023-08-12T00:02:38;4.68;;;2.58;;
81273;SDS011;70753;47.908;11.274;2023-08-12T00:05:04;5.65;;;2.70;;
81273;SDS011;70753;47.908;11.274;2023-08-12T00:07:29;4.93;;;2.88;;
81273;SDS011;70753;47.908;11.274;2023-08-12T00:09:55;4.50;;;2.70;;
81273;SDS011;70753;47.908;11.274;2023-08-12T00:12:20;5.57;;;2.55;;
81273;SDS011;70753;47.908;11.274;2023-08-12T00:14:46;4.72;;;2.53;;
81273;SDS011;70753;47.908;11.274;2023-08-12T00:17:11;4.93;;;2.63;;
81273;SDS011;70753;47.908;11.274;2023-08-12T00:19:38;4.70;;;2.75;;
81273;SDS011;70753;47.908;11.274;2023-08-12T00:22:03;7.22;;;3.08;;
81273;SDS011;70753;47.908;11.274;2023-08-12T00:24:29;6.80;;;2.90;;
81273;SDS011;70753;47.908;11.274;2023-08-12T00:26:54;5.82;;;2.80;;
81273;SDS011;70753;47.908;11.274;2023-08-12T00:29:20;5.13;;;2.42;;
81273;SDS011;70753;47.908;11.274;2023-08-12T00:31:46;5.07;;;2.58;;
81273;SDS011;70753;47.908;11.274;2023-08-12T00:34:12;4.93;;;2.80;;
81273;SDS011;70753;47.908;11.274;2023-08-12T00:36:39;5.00;;;3.17;;
81273;SDS011;70753;47.908;11.274;2023-08-12T00:39:04;6.05;;;2.92;;
81273;SDS011;70753;47.908;11.274;2023-08-12T00:41:29;5.03;;;2.60;;
81273;SDS011;70753;47.908;11.274;2023-08-12T00:43:56;5.75;;;3.10;;
81273;SDS011;70753;47.908;11.274;2023-08-12T00:46:21;6.03;;;3.00;;
81273;SDS011;70753;47.908;11.274;2023-08-12T00:48:47;6.20;;;2.92;;
81273;SDS011;70753;47.908;11.274;2023-08-12T00:51:14;4.40;;;2.60;;
81273;SDS011;70753;47.908;11.274;2023-08-12T00:53:42;7.05;;;3.10;;
81273;SDS011;70753;47.908;11.274;2023-08-12T00:56:08;5.43;;;2.70;;
81273;SDS011;70753;47.908;11.274;2023-08-12T00:58:34;5.38;;;2.58;;
81273;SDS011;70753;47.908;11.274;2023-08-12T01:00:59;4.72;;;2.78;;
81273;SDS011;70753;47.908;11.274;2023-08-12T01:03:25;4.93;;;3.10;;
81273;SDS011;70753;47.908;11.274;2023-08-12T01:05:51;6.65;;;3.28;;
81273;SDS011;70753;47.908;11.274;2023-08-12T01:08:17;5.05;;;3.00;;
81273;SDS011;70753;47.908;11.274;2023-08-12T01:10:47;6.90;;;3.03;;
81273;SDS011;70753;47.908;11.274;2023-08-12T01:13:19;6.28;;;2.75;;
81273;SDS011;70753;47.908;11.274;2023-08-12T01:15:55;4.70;;;2.92;;
81273;SDS011;70753;47.908;11.274;2023-08-12T01:18:24;5.15;;;3.05;;
81273;SDS011;70753;47.908;11.274;2023-08-12T01:20:50;7.70;;;3.30;;
81273;SDS011;70753;47.908;11.274;2023-08-12T01:23:18;5.30;;;3.13;;
81273;SDS011;70753;47.908;11.274;2023-08-12T01:25:44;7.07;;;3.05;;
81273;SDS011;70753;47.908;11.274;2023-08-12T01:28:09;5.38;;;3.10;;
81273;SDS011;70753;47.908;11.274;2023-08-12T01:30:36;6.93;;;3.10;;
81273;SDS011;70753;47.908;11.274;2023-08-12T01:33:10;4.00;;;2.53;;
81273;SDS011;70753;47.908;11.274;2023-08-12T01:35:43;5.38;;;2.80;;
81273;SDS011;70753;47.908;11.274;2023-08-12T01:38:15;4.88;;;2.65;;
81273;SDS011;70753;47.908;11.274;2023-08-12T01:40:47;5.30;;;2.92;;
81273;SDS011;70753;47.908;11.274;2023-08-12T01:43:14;5.25;;;3.10;;
81273;SDS011;70753;47.908;11.274;2023-08-12T01:45:40;4.38;;;2.75;;
81273;SDS011;70753;47.908;11.274;2023-08-12T01:48:06;4.65;;;2.80;;
81273;SDS011;70753;47.908;11.274;2023-08-12T01:50:31;4.95;;;3.00;;
81273;SDS011;70753;47.908;11.274;2023-08-12T01:52:57;6.50;;;2.80;;
81273;SDS011;70753;47.908;11.274;2023-08-12T01:55:24;5.35;;;3.15;;
81273;SDS011;70753;47.908;11.274;2023-08-12T01:57:50;5.43;;;2.90;;
81273;SDS011;70753;47.908;11.274;2023-08-12T02:00:16;5.40;;;2.92;;
81273;SDS011;70753;47.908;11.274;2023-08-12T02:02:41;6.68;;;3.40;;
81273;SDS011;70753;47.908;11.274;2023-08-12T02:05:07;5.03;;;2.92;;
81273;SDS011;70753;47.908;11.274;2023-08-12T02:07:32;6.25;;;3.30;;
81273;SDS011;70753;47.908;11.274;2023-08-12T02:09:58;7.25;;;2.92;;
81273;SDS011;70753;47.908;11.274;2023-08-12T02:12:25;4.80;;;2.70;;
81273;SDS011;70753;47.908;11.274;2023-08-12T02:14:51;5.45;;;2.45;;
81273;SDS011;70753;47.908;11.274;2023-08-12T02:17:16;4.80;;;3.20;;
81273;SDS011;70753;47.908;11.274;2023-08-12T02:19:42;6.03;;;3.13;;
81273;SDS011;70753;47.908;11.274;2023-08-12T02:22:07;4.85;;;2.88;;
81273;SDS011;70753;47.908;11.274;2023-08-12T02:24:32;4.90;;;3.13;;
81273;SDS011;70753;47.908;11.274;2023-08-12T02:26:58;5.95;;;2.95;;
81273;SDS011;70753;47.908;11.274;2023-08-12T02:29:25;6.20;;;3.20;;
81273;SDS011;70753;47.908;11.274;2023-08-12T02:31:50;4.88;;;2.80;;
81273;SDS011;70753;47.908;11.274;2023-08-12T02:34:15;5.72;;;2.97;;
81273;SDS011;70753;47.908;11.274;2023-08-12T02:36:41;4.80;;;2.83;;
81273;SDS011;70753;47.908;11.274;2023-08-12T02:39:06;5.45;;;3.15;;
81273;SDS011;70753;47.908;11.274;2023-08-12T02:41:32;4.78;;;3.20;;
81273;SDS011;70753;47.908;11.274;2023-08-12T02:43:57;6.03;;;3.17;;
81273;SDS011;70753;47.908;11.274;2023-08-12T02:46:24;6.45;;;3.30;;
81273;SDS011;70753;47.908;11.274;2023-08-12T02:48:50;4.88;;;2.70;;
81273;SDS011;70753;47.908;11.274;2023-08-12T02:51:16;5.25;;;2.65;;
81273;SDS011;70753;47.908;11.274;2023-08-12T02:53:41;5.03;;;3.10;;
81273;SDS011;70753;47.908;11.274;2023-08-12T02:56:07;5.28;;;3.03;;
81273;SDS011;70753;47.908;11.274;2023-08-12T02:58:33;6.35;;;3.20;;
81273;SDS011;70753;47.908;11.274;2023-08-12T03:00:58;5.38;;;2.72;;
81273;SDS011;70753;47.908;11.274;2023-08-12T03:03:25;4.90;;;2.67;;
81273;SDS011;70753;47.908;11.274;2023-08-12T03:05:50;5.68;;;3.33;;
81273;SDS011;70753;47.908;11.274;2023-08-12T03:08:16;5.65;;;2.92;;
81273;SDS011;70753;47.908;11.274;2023-08-12T03:10:42;6.63;;;2.80;;
81273;SDS011;70753;47.908;11.274;2023-08-12T03:13:09;4.75;;;3.00;;
81273;SDS011;70753;47.908;11.274;2023-08-12T03:15:34;4.35;;;2.55;;
81273;SDS011;70753;47.908;11.274;2023-08-12T03:18:03;5.45;;;3.15;;
81273;SDS011;70753;47.908;11.274;2023-08-12T03:20:30;5.85;;;3.05;;
81273;SDS011;70753;47.908;11.274;2023-08-12T03:22:56;12.40;;;6.10;;
81273;SDS011;70753;47.908;11.274;2023-08-12T03:25:22;29.90;;;12.50;;
81273;SDS011;70753;47.908;11.274;2023-08-12T03:27:47;12.68;;;5.32;;
81273;SDS011;70753;47.908;11.274;2023-08-12T03:30:12;17.63;;;8.02;;
81273;SDS011;70753;47.908;11.274;2023-08-12T03:32:38;20.17;;;8.55;;
81273;SDS011;70753;47.908;11.274;2023-08-12T03:35:04;24.65;;;9.88;;
81273;SDS011;70753;47.908;11.274;2023-08-12T03:37:31;24.15;;;10.90;;
81273;SDS011;70753;47.908;11.274;2023-08-12T03:39:57;14.00;;;7.10;;
81273;SDS011;70753;47.908;11.274;2023-08-12T03:42:23;8.82;;;4.38;;
81273;SDS011;70753;47.908;11.274;2023-08-12T03:44:48;5.93;;;3.05;;
81273;SDS011;70753;47.908;11.274;2023-08-12T03:47:14;8.48;;;3.80;;
81273;SDS011;70753;47.908;11.274;2023-08-12T03:49:39;5.40;;;2.90;;
81273;SDS011;70753;47.908;11.274;2023-08-12T03:52:05;6.95;;;3.15;;
81273;SDS011;70753;47.908;11.274;2023-08-12T03:54:32;4.68;;;2.78;;
81273;SDS011;70753;47.908;11.274;2023-08-12T03:56:58;5.82;;;3.08;;
81273;SDS011;70753;47.908;11.274;2023-08-12T03:59:23;5.35;;;2.92;;
81273;SDS011;70753;47.908;11.274;2023-08-12T04:01:49;6.32;;;3.10;;
81273;SDS011;70753;47.908;11.274;2023-08-12T04:04:14;5.75;;;2.80;;
81273;SDS011;70753;47.908;11.274;2023-08-12T04:06:40;5.20;;;3.00;;
81273;SDS011;70753;47.908;11.274;2023-08-12T04:09:05;5.32;;;2.83;;
81273;SDS011;70753;47.908;11.274;2023-08-12T04:11:32;4.50;;;2.65;;
81273;SDS011;70753;47.908;11.274;2023-08-12T04:13:57;6.30;;;2.95;;
81273;SDS011;70753;47.908;11.274;2023-08-12T04:16:23;4.72;;;3.30;;
81273;SDS011;70753;47.908;11.274;2023-08-12T04:18:48;5.43;;;3.00;;
81273;SDS011;70753;47.908;11.274;2023-08-12T04:21:13;5.35;;;2.80;;
81273;SDS011;70753;47.908;11.274;2023-08-12T04:23:40;6.93;;;3.00;;
81273;SDS011;70753;47.908;11.274;2023-08-12T04:26:05;4.50;;;2.70;;
81273;SDS011;70753;47.908;11.274;2023-08-12T04:28:32;5.15;;;2.90;;
81273;SDS011;70753;47.908;11.274;2023-08-12T04:30:58;5.90;;;3.05;;
81273;SDS011;70753;47.908;11.274;2023-08-12T04:33:23;5.03;;;2.83;;
81273;SDS011;70753;47.908;11.274;2023-08-12T04:35:49;5.18;;;2.97;;
81273;SDS011;70753;47.908;11.274;2023-08-12T04:38:14;4.82;;;3.00;;
81273;SDS011;70753;47.908;11.274;2023-08-12T04:40:40;6.82;;;3.20;;
81273;SDS011;70753;47.908;11.274;2023-08-12T04:43:07;7.93;;;3.13;;
81273;SDS011;70753;47.908;11.274;2023-08-12T04:45:34;6.72;;;3.30;;
81273;SDS011;70753;47.908;11.274;2023-08-12T04:47:59;8.07;;;2.92;;
81273;SDS011;70753;47.908;11.274;2023-08-12T04:50:25;4.82;;;2.58;;
81273;SDS011;70753;47.908;11.274;2023-08-12T04:52:51;4.63;;;2.83;;
81273;SDS011;70753;47.908;11.274;2023-08-12T04:55:17;5.90;;;2.80;;
81273;SDS011;70753;47.908;11.274;2023-08-12T04:57:43;5.35;;;3.03;;
81273;SDS011;70753;47.908;11.274;2023-08-12T05:00:08;5.57;;;2.92;;
81273;SDS011;70753;47.908;11.274;2023-08-12T05:02:36;5.63;;;2.83;;
81273;SDS011;70753;47.908;11.274;2023-08-12T05:05:01;6.30;;;2.88;;
81273;SDS011;70753;47.908;11.274;2023-08-12T05:07:27;5.28;;;2.80;;
81273;SDS011;70753;47.908;11.274;2023-08-12T05:09:52;4.90;;;2.72;;
81273;SDS011;70753;47.908;11.274;2023-08-12T05:12:18;4.72;;;3.00;;
81273;SDS011;70753;47.908;11.274;2023-08-12T05:14:43;5.93;;;2.58;;
81273;SDS011;70753;47.908;11.274;2023-08-12T05:17:09;6.10;;;3.30;;
81273;SDS011;70753;47.908;11.274;2023-08-12T05:19:36;5.53;;;3.22;;
81273;SDS011;70753;47.908;11.274;2023-08-12T05:22:01;4.78;;;3.08;;
81273;SDS011;70753;47.908;11.274;2023-08-12T05:24:27;9.23;;;3.78;;
81273;SDS011;70753;47.908;11.274;2023-08-12T05:26:52;6.55;;;3.80;;
81273;SDS011;70753;47.908;11.274;2023-08-12T05:29:18;5.40;;;3.50;;
81273;SDS011;70753;47.908;11.274;2023-08-12T05:31:43;5.15;;;3.10;;
81273;SDS011;70753;47.908;11.274;2023-08-12T05:34:09;6.43;;;3.47;;
81273;SDS011;70753;47.908;11.274;2023-08-12T05:36:36;4.75;;;2.88;;
81273;SDS011;70753;47.908;11.274;2023-08-12T05:39:01;5.22;;;3.35;;
81273;SDS011;70753;47.908;11.274;2023-08-12T05:41:27;5.95;;;3.35;;
81273;SDS011;70753;47.908;11.274;2023-08-12T05:43:52;5.43;;;3.22;;
81273;SDS011;70753;47.908;11.274;2023-08-12T05:46:19;5.53;;;3.00;;
81273;SDS011;70753;47.908;11.274;2023-08-12T05:48:44;6.43;;;3.20;;
81273;SDS011;70753;47.908;11.274;2023-08-12T05:51:09;5.80;;;3.30;;
81273;SDS011;70753;47.908;11.274;2023-08-12T05:53:36;4.95;;;3.40;;
81273;SDS011;70753;47.908;11.274;2023-08-12T05:56:01;4.88;;;3.60;;
81273;SDS011;70753;47.908;11.274;2023-08-12T05:58:27;6.07;;;3.03;;
81273;SDS011;70753;47.908;11.274;2023-08-12T06:00:52;5.75;;;3.53;;
81273;SDS011;70753;47.908;11.274;2023-08-12T06:03:18;5.93;;;3.53;;
81273;SDS011;70753;47.908;11.274;2023-08-12T06:05:44;4.93;;;3.03;;
81273;SDS011;70753;47.908;11.274;2023-08-12T06:08:12;6.28;;;2.83;;
81273;SDS011;70753;47.908;11.274;2023-08-12T06:10:39;5.93;;;2.72;;
81273;SDS011;70753;47.908;11.274;2023-08-12T06:13:04;5.70;;;3.30;;
81273;SDS011;70753;47.908;11.274;2023-08-12T06:15:30;5.70;;;3.20;;
81273;SDS011;70753;47.908;11.274;2023-08-12T06:17:56;5.68;;;3.00;;
81273;SDS011;70753;47.908;11.274;2023-08-12T06:20:22;6.22;;;3.00;;
81273;SDS011;70753;47.908;11.274;2023-08-12T06:22:48;5.55;;;3.30;;
81273;SDS011;70753;47.908;11.274;2023-08-12T06:25:14;5.03;;;2.67;;
81273;SDS011;70753;47.908;11.274;2023-08-12T06:27:42;4.88;;;3.17;;
81273;SDS011;70753;47.908;11.274;2023-08-12T06:30:08;4.90;;;3.60;;
81273;SDS011;70753;47.908;11.274;2023-08-12T06:32:34;6.65;;;3.10;;
81273;SDS011;70753;47.908;11.274;2023-08-12T06:35:00;5.03;;;3.50;;
81273;SDS011;70753;47.908;11.274;2023-08-12T06:37:25;5.82;;;3.10;;
81273;SDS011;70753;47.908;11.274;2023-08-12T06:39:50;5.70;;;3.03;;
81273;SDS011;70753;47.908;11.274;2023-08-12T06:42:16;5.50;;;3.05;;
81273;SDS011;70753;47.908;11.274;2023-08-12T06:44:44;5.03;;;3.00;;
81273;SDS011;70753;47.908;11.274;2023-08-12T06:47:10;7.25;;;3.30;;
81273;SDS011;70753;47.908;11.274;2023-08-12T06:49:35;5.78;;;3.30;;
81273;SDS011;70753;47.908;11.274;2023-08-12T06:52:01;5.72;;;3.38;;
81273;SDS011;70753;47.908;11.274;2023-08-12T06:54:26;5.82;;;3.50;;
81273;SDS011;70753;47.908;11.274;2023-08-12T06:56:52;5.30;;;3.22;;
81273;SDS011;70753;47.908;11.274;2023-08-12T06:59:17;5.55;;;3.30;;
81273;SDS011;70753;47.908;11.274;2023-08-12T07:01:44;5.38;;;3.22;;
81273;SDS011;70753;47.908;11.274;2023-08-12T07:04:09;4.70;;;2.95;;
81273;SDS011;70753;47.908;11.274;2023-08-12T07:06:34;5.45;;;3.13;;
81273;SDS011;70753;47.908;11.274;2023-08-12T07:09:00;5.47;;;2.80;;
81273;SDS011;70753;47.908;11.274;2023-08-12T07:11:25;4.75;;;3.55;;
81273;SDS011;70753;47.908;11.274;2023-08-12T07:13:51;5.25;;;3.08;;
81273;SDS011;70753;47.908;11.274;2023-08-12T07:16:16;5.03;;;3.10;;
81273;SDS011;70753;47.908;11.274;2023-08-12T07:18:43;5.43;;;3.17;;
81273;SDS011;70753;47.908;11.274;2023-08-12T07:21:10;6.68;;;3.38;;
81273;SDS011;70753;47.908;11.274;2023-08-12T07:23:35;5.10;;;2.67;;
81273;SDS011;70753;47.908;11.274;2023-08-12T07:26:01;5.05;;;3.22;;
81273;SDS011;70753;47.908;11.274;2023-08-12T07:28:26;5.35;;;3.20;;
81273;SDS011;70753;47.908;11.274;2023-08-12T07:30:51;4.78;;;3.15;;
81273;SDS011;70753;47.908;11.274;2023-08-12T07:33:17;4.70;;;3.10;;
81273;SDS011;70753;47.908;11.274;2023-08-12T07:35:44;5.88;;;3.13;;
81273;SDS011;70753;47.908;11.274;2023-08-12T07:38:09;4.88;;;3.42;;
81273;SDS011;70753;47.908;11.274;2023-08-12T07:40:36;5.15;;;3.55;;
81273;SDS011;70753;47.908;11.274;2023-08-12T07:43:04;5.82;;;3.20;;
81273;SDS011;70753;47.908;11.274;2023-08-12T07:45:30;4.95;;;3.05;;
81273;SDS011;70753;47.908;11.274;2023-08-12T07:47:56;5.70;;;3.40;;
81273;SDS011;70753;47.908;11.274;2023-08-12T07:50:22;5.75;;;3.25;;
81273;SDS011;70753;47.908;11.274;2023-08-12T07:52:49;5.38;;;3.40;;
81273;SDS011;70753;47.908;11.274;2023-08-12T07:55:14;5.15;;;3.03;;
81273;SDS011;70753;47.908;11.274;2023-08-12T07:57:39;6.22;;;3.17;;
81273;SDS011;70753;47.908;11.274;2023-08-12T08:00:05;5.75;;;3.08;;
81273;SDS011;70753;47.908;11.274;2023-08-12T08:02:31;4.60;;;3.20;;
81273;SDS011;70753;47.908;11.274;2023-08-12T08:04:57;5.05;;;3.28;;
81273;SDS011;70753;47.908;11.274;2023-08-12T08:07:23;10.00;;;3.70;;
81273;SDS011;70753;47.908;11.274;2023-08-12T08:09:50;6.63;;;3.40;;
81273;SDS011;70753;47.908;11.274;2023-08-12T08:12:16;5.30;;;2.78;;
81273;SDS011;70753;47.908;11.274;2023-08-12T08:14:42;5.15;;;3.38;;
81273;SDS011;70753;47.908;11.274;2023-08-12T08:17:07;4.55;;;3.13;;
81273;SDS011;70753;47.908;11.274;2023-08-12T08:19:33;4.85;;;3.08;;
81273;SDS011;70753;47.908;11.274;2023-08-12T08:21:59;5.57;;;3.40;;
81273;SDS011;70753;47.908;11.274;2023-08-12T08:24:24;6.47;;;3.17;;
81273;SDS011;70753;47.908;11.274;2023-08-12T08:26:51;7.78;;;3.10;;
81273;SDS011;70753;47.908;11.274;2023-08-12T08:29:16;4.97;;;3.35;;
81273;SDS011;70753;47.908;11.274;2023-08-12T08:31:43;5.22;;;3.47;;
81273;SDS011;70753;47.908;11.274;2023-08-12T08:34:08;18.65;;;8.50;;
81273;SDS011;70753;47.908;11.274;2023-08-12T08:36:34;14.65;;;7.45;;
81273;SDS011;70753;47.908;11.274;2023-08-12T08:38:59;8.60;;;4.53;;
81273;SDS011;70753;47.908;11.274;2023-08-12T08:41:24;10.65;;;4.63;;
81273;SDS011;70753;47.908;11.274;2023-08-12T08:43:56;7.10;;;3.63;;
81273;SDS011;70753;47.908;11.274;2023-08-12T08:46:27;6.28;;;3.92;;
81273;SDS011;70753;47.908;11.274;2023-08-12T08:48:54;5.50;;;3.72;;
81273;SDS011;70753;47.908;11.274;2023-08-12T08:51:23;5.47;;;3.40;;
81273;SDS011;70753;47.908;11.274;2023-08-12T08:53:50;5.30;;;3.13;;
81273;SDS011;70753;47.908;11.274;2023-08-12T08:56:18;5.70;;;3.33;;
81273;SDS011;70753;47.908;11.274;2023-08-12T08:58:44;5.30;;;3.15;;
81273;SDS011;70753;47.908;11.274;2023-08-12T09:01:11;12.70;;;4.05;;
81273;SDS011;70753;47.908;11.274;2023-08-12T09:03:37;4.75;;;3.15;;
81273;SDS011;70753;47.908;11.274;2023-08-12T09:06:03;6.32;;;3.20;;
81273;SDS011;70753;47.908;11.274;2023-08-12T09:08:29;5.97;;;3.78;;
81273;SDS011;70753;47.908;11.274;2023-08-12T09:10:57;5.85;;;3.60;;
81273;SDS011;70753;47.908;11.274;2023-08-12T09:13:24;5.40;;;3.53;;
81273;SDS011;70753;47.908;11.274;2023-08-12T09:15:49;4.88;;;3.17;;
81273;SDS011;70753;47.908;11.274;2023-08-12T09:18:16;5.75;;;3.33;;
81273;SDS011;70753;47.908;11.274;2023-08-12T09:20:42;5.53;;;3.20;;
81273;SDS011;70753;47.908;11.274;2023-08-12T09:23:08;5.53;;;3.35;;
81273;SDS011;70753;47.908;11.274;2023-08-12T09:25:34;5.50;;;3.20;;
81273;SDS011;70753;47.908;11.274;2023-08-12T09:28:00;5.07;;;2.97;;
81273;SDS011;70753;47.908;11.274;2023-08-12T09:30:28;4.80;;;3.20;;
81273;SDS011;70753;47.908;11.274;2023-08-12T09:32:57;6.05;;;3.22;;
81273;SDS011;70753;47.908;11.274;2023-08-12T09:35:30;5.18;;;3.22;;
81273;SDS011;70753;47.908;11.274;2023-08-12T09:37:57;5.80;;;3.40;;
81273;SDS011;70753;47.908;11.274;2023-08-12T09:40:22;4.93;;;3.13;;
81273;SDS011;70753;47.908;11.274;2023-08-12T09:42:48;8.35;;;3.55;;
81273;SDS011;70753;47.908;11.274;2023-08-12T09:45:13;4.95;;;3.20;;
81273;SDS011;70753;47.908;11.274;2023-08-12T09:47:39;7.93;;;3.60;;
81273;SDS011;70753;47.908;11.274;2023-08-12T09:50:06;5.22;;;3.30;;
81273;SDS011;70753;47.908;11.274;2023-08-12T09:52:33;5.10;;;3.40;;
81273;SDS011;70753;47.908;11.274;2023-08-12T09:55:00;4.63;;;3.03;;
81273;SDS011;70753;47.908;11.274;2023-08-12T09:57:28;6.32;;;3.58;;
81273;SDS011;70753;47.908;11.274;2023-08-12T09:59:55;4.85;;;3.30;;
81273;SDS011;70753;47.908;11.274;2023-08-12T10:02:22;6.00;;;3.38;;
81273;SDS011;70753;47.908;11.274;2023-08-12T10:04:49;5.07;;;3.30;;
81273;SDS011;70753;47.908;11.274;2023-08-12T10:07:16;5.63;;;4.00;;
81273;SDS011;70753;47.908;11.274;2023-08-12T10:09:43;4.50;;;3.25;;
81273;SDS011;70753;47.908;11.274;2023-08-12T10:12:09;5.05;;;3.45;;
81273;SDS011;70753;47.908;11.274;2023-08-12T10:14:35;5.03;;;3.38;;
81273;SDS011;70753;47.908;11.274;2023-08-12T10:17:01;5.10;;;2.95;;
81273;SDS011;70753;47.908;11.274;2023-08-12T10:19:26;5.22;;;3.10;;
81273;SDS011;70753;47.908;11.274;2023-08-12T10:21:54;5.35;;;3.30;;
81273;SDS011;70753;47.908;11.274;2023-08-12T10:24:21;5.72;;;3.17;;
81273;SDS011;70753;47.908;11.274;2023-08-12T10:26:49;4.28;;;3.13;;
81273;SDS011;70753;47.908;11.274;2023-08-12T10:29:16;4.40;;;3.17;;
81273;SDS011;70753;47.908;11.274;2023-08-12T10:31:42;5.25;;;3.13;;
81273;SDS011;70753;47.908;11.274;2023-08-12T10:34:07;4.13;;;2.78;;
81273;SDS011;70753;47.908;11.274;2023-08-12T10:36:43;4.75;;;3.25;;
81273;SDS011;70753;47.908;11.274;2023-08-12T10:39:09;4.82;;;3.08;;
81273;SDS011;70753;47.908;11.274;2023-08-12T10:41:35;5.20;;;3.33;;
81273;SDS011;70753;47.908;11.274;2023-08-12T10:44:03;4.75;;;3.15;;
81273;SDS011;70753;47.908;11.274;2023-08-12T10:46:30;6.30;;;3.50;;
81273;SDS011;70753;47.908;11.274;2023-08-12T10:48:57;4.47;;;3.17;;
81273;SDS011;70753;47.908;11.274;2023-08-12T10:59:48;4.93;;;2.92;;
81273;SDS011;70753;47.908;11.274;2023-08-12T11:02:18;5.07;;;2.60;;
81273;SDS011;70753;47.908;11.274;2023-08-12T11:04:48;4.50;;;2.83;;
81273;SDS011;70753;47.908;11.274;2023-08-12T11:07:15;4.80;;;3.15;;
81273;SDS011;70753;47.908;11.274;2023-08-12T11:09:40;4.43;;;2.58;;
81273;SDS011;70753;47.908;11.274;2023-08-12T11:12:06;5.22;;;2.60;;
81273;SDS011;70753;47.908;11.274;2023-08-12T11:14:33;4.32;;;2.53;;
81273;SDS011;70753;47.908;11.274;2023-08-12T11:16:59;4.18;;;2.80;;
81273;SDS011;70753;47.908;11.274;2023-08-12T11:19:39;3.97;;;2.70;;
81273;SDS011;70753;47.908;11.274;2023-08-12T11:22:07;4.95;;;2.85;;
81273;SDS011;70753;47.908;11.274;2023-08-12T11:24:32;4.57;;;2.70;;
81273;SDS011;70753;47.908;11.274;2023-08-12T11:26:58;5.13;;;2.72;;
81273;SDS011;70753;47.908;11.274;2023-08-12T11:29:25;4.95;;;2.85;;
81273;SDS011;70753;47.908;11.274;2023-08-12T11:31:50;4.75;;;2.70;;
81273;SDS011;70753;47.908;11.274;2023-08-12T11:34:17;4.15;;;2.80;;
81273;SDS011;70753;47.908;11.274;2023-08-12T11:36:42;5.65;;;2.80;;
81273;SDS011;70753;47.908;11.274;2023-08-12T11:39:08;4.30;;;2.78;;
81273;SDS011;70753;47.908;11.274;2023-08-12T11:41:34;5.05;;;2.70;;
81273;SDS011;70753;47.908;11.274;2023-08-12T11:44:00;4.45;;;2.70;;
81273;SDS011;70753;47.908;11.274;2023-08-12T11:46:25;5.05;;;2.65;;
81273;SDS011;70753;47.908;11.274;2023-08-12T11:48:51;5.03;;;2.80;;
81273;SDS011;70753;47.908;11.274;2023-08-12T11:51:18;4.18;;;2.63;;
81273;SDS011;70753;47.908;11.274;2023-08-12T11:53:43;5.25;;;2.92;;
81273;SDS011;70753;47.908;11.274;2023-08-12T11:56:09;9.88;;;3.70;;
81273;SDS011;70753;47.908;11.274;2023-08-12T11:58:35;5.25;;;2.50;;
81273;SDS011;70753;47.908;11.274;2023-08-12T12:01:02;5.65;;;3.20;;
81273;SDS011;70753;47.908;11.274;2023-08-12T12:03:29;4.70;;;2.63;;
81273;SDS011;70753;47.908;11.274;2023-08-12T12:05:55;4.53;;;3.03;;
81273;SDS011;70753;47.908;11.274;2023-08-12T12:08:22;4.32;;;2.60;;
81273;SDS011;70753;47.908;11.274;2023-08-12T12:10:47;6.80;;;2.65;;
81273;SDS011;70753;47.908;11.274;2023-08-12T12:13:13;4.95;;;2.60;;
81273;SDS011;70753;47.908;11.274;2023-08-12T12:15:40;4.30;;;2.70;;
81273;SDS011;70753;47.908;11.274;2023-08-12T12:18:09;5.53;;;2.70;;
81273;SDS011;70753;47.908;11.274;2023-08-12T12:20:35;6.57;;;3.20;;
81273;SDS011;70753;47.908;11.274;2023-08-12T12:23:05;4.88;;;2.70;;
81273;SDS011;70753;47.908;11.274;2023-08-12T12:25:32;4.50;;;2.88;;
81273;SDS011;70753;47.908;11.274;2023-08-12T12:27:58;6.93;;;2.70;;
81273;SDS011;70753;47.908;11.274;2023-08-12T12:30:23;7.40;;;2.95;;
81273;SDS011;70753;47.908;11.274;2023-08-12T12:32:49;4.85;;;2.85;;
81273;SDS011;70753;47.908;11.274;2023-08-12T12:35:14;5.45;;;2.70;;
81273;SDS011;70753;47.908;11.274;2023-08-12T12:37:40;4.35;;;2.70;;
81273;SDS011;70753;47.908;11.274;2023-08-12T12:40:07;4.55;;;2.90;;
81273;SDS011;70753;47.908;11.274;2023-08-12T12:42:34;5.78;;;2.80;;
81273;SDS011;70753;47.908;11.274;2023-08-12T12:44:59;5.85;;;3.05;;
81273;SDS011;70753;47.908;11.274;2023-08-12T12:47:25;5.35;;;2.65;;
81273;SDS011;70753;47.908;11.274;2023-08-12T12:49:50;4.90;;;2.60;;
81273;SDS011;70753;47.908;11.274;2023-08-12T12:52:16;6.82;;;2.67;;
81273;SDS011;70753;47.908;11.274;2023-08-12T12:54:41;4.25;;;2.72;;
81273;SDS011;70753;47.908;11.274;2023-08-12T12:57:07;5.75;;;2.97;;
81273;SDS011;70753;47.908;11.274;2023-08-12T12:59:34;6.13;;;2.65;;
81273;SDS011;70753;47.908;11.274;2023-08-12T13:01:59;5.95;;;2.47;;
81273;SDS011;70753;47.908;11.274;2023-08-12T13:04:24;5.28;;;2.72;;
81273;SDS011;70753;47.908;11.274;2023-08-12T13:06:50;5.07;;;2.55;;
81273;SDS011;70753;47.908;11.274;2023-08-12T13:09:16;4.75;;;2.80;;
81273;SDS011;70753;47.908;11.274;2023-08-12T13:11:41;6.30;;;2.47;;
81273;SDS011;70753;47.908;11.274;2023-08-12T13:14:07;5.40;;;2.50;;
81273;SDS011;70753;47.908;11.274;2023-08-12T13:16:34;4.50;;;2.72;;
81273;SDS011;70753;47.908;11.274;2023-08-12T13:19:00;6.70;;;2.90;;
81273;SDS011;70753;47.908;11.274;2023-08-12T13:21:25;5.47;;;2.75;;
81273;SDS011;70753;47.908;11.274;2023-08-12T13:23:51;7.88;;;2.65;;
81273;SDS011;70753;47.908;11.274;2023-08-12T13:26:16;4.82;;;2.78;;
81273;SDS011;70753;47.908;11.274;2023-08-12T13:28:42;5.70;;;2.60;;
81273;SDS011;70753;47.908;11.274;2023-08-12T13:31:08;5.00;;;2.70;;
81273;SDS011;70753;47.908;11.274;2023-08-12T13:33:36;5.85;;;2.55;;
81273;SDS011;70753;47.908;11.274;2023-08-12T13:36:01;7.40;;;2.45;;
81273;SDS011;70753;47.908;11.274;2023-08-12T13:38:27;4.28;;;2.60;;
81273;SDS011;70753;47.908;11.274;2023-08-12T13:40:52;4.97;;;2.40;;
81273;SDS011;70753;47.908;11.274;2023-08-12T13:43:18;4.05;;;2.33;;
81273;SDS011;70753;47.908;11.274;2023-08-12T13:45:43;4.63;;;2.63;;
81273;SDS011;70753;47.908;11.274;2023-08-12T13:48:08;4.32;;;2.33;;
81273;SDS011;70753;47.908;11.274;2023-08-12T13:50:36;4.97;;;2.42;;
81273;SDS011;70753;47.908;11.274;2023-08-12T13:53:01;4.53;;;2.60;;
81273;SDS011;70753;47.908;11.274;2023-08-12T13:55:27;18.33;;;4.07;;
81273;SDS011;70753;47.908;11.274;2023-08-12T13:57:52;6.47;;;2.85;;
81273;SDS011;70753;47.908;11.274;2023-08-12T14:00:17;4.07;;;2.40;;
81273;SDS011;70753;47.908;11.274;2023-08-12T14:02:43;5.35;;;2.65;;
81273;SDS011;70753;47.908;11.274;2023-08-12T14:05:09;4.80;;;2.75;;
81273;SDS011;70753;47.908;11.274;2023-08-12T14:07:36;5.28;;;2.55;;
81273;SDS011;70753;47.908;11.274;2023-08-12T14:10:02;4.82;;;2.47;;
81273;SDS011;70753;47.908;11.274;2023-08-12T14:12:28;6.95;;;2.95;;
81273;SDS011;70753;47.908;11.274;2023-08-12T14:14:54;6.07;;;2.72;;
81273;SDS011;70753;47.908;11.274;2023-08-12T14:17:19;5.70;;;2.50;;
81273;SDS011;70753;47.908;11.274;2023-08-12T14:19:47;6.03;;;2.60;;
81273;SDS011;70753;47.908;11.274;2023-08-12T14:22:15;5.30;;;2.85;;
81273;SDS011;70753;47.908;11.274;2023-08-12T14:27:50;4.78;;;2.30;;
81273;SDS011;70753;47.908;11.274;2023-08-12T14:30:17;5.00;;;2.35;;
81273;SDS011;70753;47.908;11.274;2023-08-12T14:32:43;4.47;;;2.30;;
81273;SDS011;70753;47.908;11.274;2023-08-12T14:35:08;7.00;;;2.72;;
81273;SDS011;70753;47.908;11.274;2023-08-12T14:37:34;7.65;;;2.80;;